sensor_id;sensor_type;location;lat;lon;timestamp;pressure;altitude;pressure_sealevel;temperature;humidity
44974;BME280;60981;50.720;11.342;2022-10-16T11:28:56;99624.00;;;22.06;92.10
44974;BME280;60981;50.720;11.342;2022-10-16T11:31:32;99625.72;;;22.07;92.09
44974;BME280;60981;50.720;11.342;2022-10-16T11:32:45;99625.50;;;22.11;91.68
44974;BME280;60981;50.720;11.342;2022-10-16T11:34:01;99627.09;;;22.15;91.36
44974;BME280;60981;50.720;11.342;2022-10-16T11:35:15;99625.81;;;22.24;91.38
44974;BME280;60981;50.720;11.342;2022-10-16T11:37:56;99625.16;;;22.39;92.28
44974;BME280;60981;50.720;11.342;2022-10-16T11:42:35;99622.81;;;22.33;91.21
44974;BME280;60981;50.720;11.342;2022-10-16T11:43:24;99619.06;;;22.39;91.57
44974;BME280;60981;50.720;11.342;2022-10-16T11:45:52;99626.41;;;22.31;91.20
44974;BME280;60981;50.720;11.342;2022-10-16T11:47:05;99628.72;;;22.18;90.12
44974;BME280;60981;50.720;11.342;2022-10-16T11:49:37;99639.00;;;22.02;89.69
44974;BME280;60981;50.720;11.342;2022-10-16T11:52:11;99638.06;;;22.03;89.59
44974;BME280;60981;50.720;11.342;2022-10-16T11:54:35;99639.50;;;21.90;88.99
44974;BME280;60981;50.720;11.342;2022-10-16T11:55:41;99630.59;;;21.94;89.53
44974;BME280;60981;50.720;11.342;2022-10-16T11:56:48;99629.03;;;21.90;89.30
44974;BME280;60981;50.720;11.342;2022-10-16T11:57:54;99630.59;;;21.94;89.81
44974;BME280;60981;50.720;11.342;2022-10-16T11:59:06;99633.66;;;22.05;90.17
44974;BME280;60981;50.720;11.342;2022-10-16T12:00:31;99634.34;;;22.09;89.25
44974;BME280;60981;50.720;11.342;2022-10-16T12:02:45;99627.75;;;22.21;87.26
44974;BME280;60981;50.720;11.342;2022-10-16T12:04:13;99629.44;;;22.01;85.52
44974;BME280;60981;50.720;11.342;2022-10-16T12:06:42;99633.44;;;22.10;86.53
44974;BME280;60981;50.720;11.342;2022-10-16T12:07:53;99634.69;;;22.22;86.28
44974;BME280;60981;50.720;11.342;2022-10-16T12:08:59;99632.44;;;22.33;85.60
44974;BME280;60981;50.720;11.342;2022-10-16T12:10:10;99632.19;;;22.19;84.25
44974;BME280;60981;50.720;11.342;2022-10-16T12:13:38;99633.22;;;22.35;84.24
44974;BME280;60981;50.720;11.342;2022-10-16T12:14:41;99641.41;;;22.48;83.47
44974;BME280;60981;50.720;11.342;2022-10-16T12:18:39;99648.84;;;22.17;83.43
44974;BME280;60981;50.720;11.342;2022-10-16T12:19:41;99640.78;;;22.22;81.86
44974;BME280;60981;50.720;11.342;2022-10-16T12:20:43;99644.88;;;22.28;82.23
44974;BME280;60981;50.720;11.342;2022-10-16T12:22:02;99633.88;;;22.40;81.06
44974;BME280;60981;50.720;11.342;2022-10-16T12:23:05;99631.25;;;22.59;80.55
44974;BME280;60981;50.720;11.342;2022-10-16T12:24:31;99641.84;;;22.76;79.97
44974;BME280;60981;50.720;11.342;2022-10-16T12:25:32;99640.16;;;22.94;78.18
44974;BME280;60981;50.720;11.342;2022-10-16T12:26:39;99644.16;;;23.02;76.50
44974;BME280;60981;50.720;11.342;2022-10-16T12:27:43;99643.16;;;23.05;75.50
44974;BME280;60981;50.720;11.342;2022-10-16T12:28:45;99645.84;;;23.03;75.26
44974;BME280;60981;50.720;11.342;2022-10-16T12:30:01;99640.19;;;23.13;76.65
44974;BME280;60981;50.720;11.342;2022-10-16T12:31:05;99643.59;;;23.15;75.76
44974;BME280;60981;50.720;11.342;2022-10-16T12:32:23;99632.06;;;23.17;75.01
44974;BME280;60981;50.720;11.342;2022-10-16T12:34:21;99628.09;;;23.27;73.91
44974;BME280;60981;50.720;11.342;2022-10-16T12:35:21;99633.50;;;23.42;72.60
44974;BME280;60981;50.720;11.342;2022-10-16T12:36:29;99628.25;;;23.42;73.37
44974;BME280;60981;50.720;11.342;2022-10-16T12:37:33;99633.75;;;23.37;72.40
44974;BME280;60981;50.720;11.342;2022-10-16T12:38:54;99638.41;;;23.49;72.10
44974;BME280;60981;50.720;11.342;2022-10-16T12:39:56;99631.03;;;23.39;72.27
44974;BME280;60981;50.720;11.342;2022-10-16T12:42:32;99631.53;;;23.47;72.32
44974;BME280;60981;50.720;11.342;2022-10-16T12:44:55;99632.81;;;23.38;71.89
44974;BME280;60981;50.720;11.342;2022-10-16T12:48:44;99632.50;;;23.08;74.14
44974;BME280;60981;50.720;11.342;2022-10-16T12:50:30;99632.44;;;22.91;73.65
44974;BME280;60981;50.720;11.342;2022-10-16T12:54:02;99639.91;;;23.00;73.51
44974;BME280;60981;50.720;11.342;2022-10-16T12:55:06;99639.44;;;23.28;72.63
44974;BME280;60981;50.720;11.342;2022-10-16T12:56:18;99644.94;;;23.41;72.41
44974;BME280;60981;50.720;11.342;2022-10-16T13:03:00;99639.72;;;23.22;72.78
44974;BME280;60981;50.720;11.342;2022-10-16T13:08:24;99626.81;;;23.17;73.16
44974;BME280;60981;50.720;11.342;2022-10-16T13:23:49;99641.75;;;22.98;73.14
44974;BME280;60981;50.720;11.342;2022-10-16T13:25:09;99644.44;;;22.96;73.69
44974;BME280;60981;50.720;11.342;2022-10-16T13:27:56;99652.66;;;22.89;73.07
44974;BME280;60981;50.720;11.342;2022-10-16T13:29:14;99649.03;;;22.91;72.89
44974;BME280;60981;50.720;11.342;2022-10-16T13:30:17;99658.28;;;23.00;72.70
44974;BME280;60981;50.720;11.342;2022-10-16T13:31:22;99658.75;;;23.08;72.33
44974;BME280;60981;50.720;11.342;2022-10-16T13:32:25;99659.69;;;23.07;72.54
44974;BME280;60981;50.720;11.342;2022-10-16T13:34:49;99652.25;;;22.98;72.59
44974;BME280;60981;50.720;11.342;2022-10-16T13:35:52;99651.25;;;23.00;72.88
44974;BME280;60981;50.720;11.342;2022-10-16T13:36:54;99653.88;;;23.00;73.18
44974;BME280;60981;50.720;11.342;2022-10-16T13:38:17;99657.28;;;23.02;72.66
44974;BME280;60981;50.720;11.342;2022-10-16T13:39:23;99652.41;;;22.95;71.45
44974;BME280;60981;50.720;11.342;2022-10-16T13:40:27;99652.88;;;23.03;71.55
44974;BME280;60981;50.720;11.342;2022-10-16T13:41:28;99653.31;;;23.13;71.68
44974;BME280;60981;50.720;11.342;2022-10-16T13:42:30;99655.59;;;23.01;71.20
44974;BME280;60981;50.720;11.342;2022-10-16T13:44:55;99645.50;;;22.92;71.81
44974;BME280;60981;50.720;11.342;2022-10-16T13:46:05;99650.53;;;22.78;72.03
44974;BME280;60981;50.720;11.342;2022-10-16T13:48:31;99657.59;;;22.76;72.00
44974;BME280;60981;50.720;11.342;2022-10-16T13:49:33;99660.03;;;22.81;72.73
44974;BME280;60981;50.720;11.342;2022-10-16T13:50:34;99658.22;;;22.83;72.29
44974;BME280;60981;50.720;11.342;2022-10-16T13:51:36;99660.75;;;22.84;71.18
44974;BME280;60981;50.720;11.342;2022-10-16T13:52:37;99662.41;;;22.87;71.55
44974;BME280;60981;50.720;11.342;2022-10-16T13:53:39;99652.03;;;22.84;71.05
44974;BME280;60981;50.720;11.342;2022-10-16T13:54:44;99658.31;;;22.80;70.69
44974;BME280;60981;50.720;11.342;2022-10-16T13:55:46;99662.44;;;22.66;71.67
44974;BME280;60981;50.720;11.342;2022-10-16T13:56:49;99670.09;;;22.71;72.22
44974;BME280;60981;50.720;11.342;2022-10-16T13:58:05;99664.44;;;22.80;72.25
44974;BME280;60981;50.720;11.342;2022-10-16T13:59:27;99658.84;;;22.88;72.07
44974;BME280;60981;50.720;11.342;2022-10-16T14:00:33;99658.84;;;22.88;72.06
44974;BME280;60981;50.720;11.342;2022-10-16T14:01:40;99663.78;;;22.94;71.95
44974;BME280;60981;50.720;11.342;2022-10-16T14:02:45;99662.25;;;22.90;71.66
44974;BME280;60981;50.720;11.342;2022-10-16T14:03:52;99665.53;;;22.95;71.81
44974;BME280;60981;50.720;11.342;2022-10-16T14:04:55;99666.16;;;23.00;71.33
44974;BME280;60981;50.720;11.342;2022-10-16T14:06:00;99670.47;;;23.01;71.75
44974;BME280;60981;50.720;11.342;2022-10-16T14:07:03;99665.84;;;23.06;71.53
44974;BME280;60981;50.720;11.342;2022-10-16T14:08:09;99666.63;;;23.08;71.95
44974;BME280;60981;50.720;11.342;2022-10-16T14:10:34;99678.28;;;23.02;71.04
44974;BME280;60981;50.720;11.342;2022-10-16T14:11:37;99670.19;;;22.88;70.45
44974;BME280;60981;50.720;11.342;2022-10-16T14:12:53;99676.97;;;22.73;70.79
44974;BME280;60981;50.720;11.342;2022-10-16T14:13:55;99682.72;;;22.63;71.69
44974;BME280;60981;50.720;11.342;2022-10-16T14:14:57;99685.88;;;22.51;70.92
44974;BME280;60981;50.720;11.342;2022-10-16T14:16:05;99692.09;;;22.48;71.84
44974;BME280;60981;50.720;11.342;2022-10-16T14:18:28;99690.72;;;22.39;72.59
44974;BME280;60981;50.720;11.342;2022-10-16T14:19:37;99698.66;;;22.38;73.25
44974;BME280;60981;50.720;11.342;2022-10-16T14:20:38;99692.88;;;22.50;72.59
44974;BME280;60981;50.720;11.342;2022-10-16T14:21:42;99691.28;;;22.66;72.07
44974;BME280;60981;50.720;11.342;2022-10-16T14:22:43;99694.56;;;22.71;72.32
44974;BME280;60981;50.720;11.342;2022-10-16T14:23:48;99691.94;;;22.71;72.03
44974;BME280;60981;50.720;11.342;2022-10-16T14:24:50;99687.97;;;22.63;71.50
44974;BME280;60981;50.720;11.342;2022-10-16T14:25:52;99686.69;;;22.71;71.35
44974;BME280;60981;50.720;11.342;2022-10-16T14:26:54;99688.16;;;22.77;71.21
44974;BME280;60981;50.720;11.342;2022-10-16T14:29:18;99692.91;;;22.69;71.28
44974;BME280;60981;50.720;11.342;2022-10-16T14:30:22;99694.31;;;22.57;70.68
44974;BME280;60981;50.720;11.342;2022-10-16T14:31:25;99693.59;;;22.54;71.68
44974;BME280;60981;50.720;11.342;2022-10-16T14:32:27;99700.75;;;22.50;71.75
44974;BME280;60981;50.720;11.342;2022-10-16T14:34:37;99690.47;;;22.45;72.12
44974;BME280;60981;50.720;11.342;2022-10-16T14:35:41;99690.50;;;22.44;72.49
44974;BME280;60981;50.720;11.342;2022-10-16T14:36:45;99691.84;;;22.34;72.67
44974;BME280;60981;50.720;11.342;2022-10-16T14:37:51;99696.56;;;22.26;73.68
44974;BME280;60981;50.720;11.342;2022-10-16T14:39:02;99691.53;;;22.21;73.71
44974;BME280;60981;50.720;11.342;2022-10-16T14:40:04;99688.97;;;22.20;74.15
44974;BME280;60981;50.720;11.342;2022-10-16T14:41:10;99690.94;;;22.14;74.62
44974;BME280;60981;50.720;11.342;2022-10-16T14:42:14;99689.47;;;22.07;75.47
44974;BME280;60981;50.720;11.342;2022-10-16T14:43:32;99692.75;;;22.12;75.49
44974;BME280;60981;50.720;11.342;2022-10-16T14:44:34;99693.38;;;22.19;75.68
44974;BME280;60981;50.720;11.342;2022-10-16T14:45:36;99697.69;;;22.20;75.28
44974;BME280;60981;50.720;11.342;2022-10-16T14:47:51;99692.13;;;21.85;76.08
44974;BME280;60981;50.720;11.342;2022-10-16T14:48:59;99697.56;;;21.81;76.52
44974;BME280;60981;50.720;11.342;2022-10-16T14:50:01;99698.34;;;21.83;76.27
44974;BME280;60981;50.720;11.342;2022-10-16T14:51:07;99701.63;;;21.88;76.13
44974;BME280;60981;50.720;11.342;2022-10-16T14:52:12;99701.56;;;21.90;77.04
44974;BME280;60981;50.720;11.342;2022-10-16T14:53:15;99705.94;;;21.89;77.00
44974;BME280;60981;50.720;11.342;2022-10-16T14:54:19;99700.56;;;21.92;76.88
44974;BME280;60981;50.720;11.342;2022-10-16T14:55:22;99704.69;;;21.77;77.39
44974;BME280;60981;50.720;11.342;2022-10-16T14:56:27;99711.16;;;21.69;78.31
44974;BME280;60981;50.720;11.342;2022-10-16T14:57:34;99712.22;;;21.65;78.61
44974;BME280;60981;50.720;11.342;2022-10-16T14:58:36;99713.78;;;21.69;78.73
44974;BME280;60981;50.720;11.342;2022-10-16T14:59:40;99721.06;;;21.61;78.74
44974;BME280;60981;50.720;11.342;2022-10-16T15:00:45;99721.22;;;21.57;79.63
44974;BME280;60981;50.720;11.342;2022-10-16T15:01:47;99719.31;;;21.61;79.81
44974;BME280;60981;50.720;11.342;2022-10-16T15:02:49;99721.22;;;21.57;79.31
44974;BME280;60981;50.720;11.342;2022-10-16T15:03:51;99731.03;;;21.52;79.67
44974;BME280;60981;50.720;11.342;2022-10-16T15:04:58;99728.63;;;21.46;79.78
44974;BME280;60981;50.720;11.342;2022-10-16T15:06:13;99726.31;;;21.39;80.44
44974;BME280;60981;50.720;11.342;2022-10-16T15:07:15;99717.59;;;21.38;80.79
44974;BME280;60981;50.720;11.342;2022-10-16T15:08:18;99724.38;;;21.44;80.69
44974;BME280;60981;50.720;11.342;2022-10-16T15:09:20;99720.03;;;21.43;80.79
44974;BME280;60981;50.720;11.342;2022-10-16T15:10:24;99726.84;;;21.47;80.60
44974;BME280;60981;50.720;11.342;2022-10-16T15:11:32;99725.91;;;21.49;80.69
44974;BME280;60981;50.720;11.342;2022-10-16T15:12:37;99728.53;;;21.49;80.69
44974;BME280;60981;50.720;11.342;2022-10-16T15:13:39;99726.75;;;21.50;80.90
44974;BME280;60981;50.720;11.342;2022-10-16T15:14:41;99733.84;;;21.48;81.24
44974;BME280;60981;50.720;11.342;2022-10-16T15:15:46;99723.38;;;21.46;81.25
44974;BME280;60981;50.720;11.342;2022-10-16T15:16:49;99741.06;;;21.41;81.45
44974;BME280;60981;50.720;11.342;2022-10-16T15:17:51;99732.53;;;21.36;82.03
44974;BME280;60981;50.720;11.342;2022-10-16T15:19:07;99732.75;;;21.30;82.58
44974;BME280;60981;50.720;11.342;2022-10-16T15:20:09;99730.13;;;21.30;82.62
44974;BME280;60981;50.720;11.342;2022-10-16T15:21:20;99738.91;;;21.29;82.81
44974;BME280;60981;50.720;11.342;2022-10-16T15:22:24;99743.22;;;21.30;83.00
44974;BME280;60981;50.720;11.342;2022-10-16T15:23:26;99738.19;;;21.24;83.27
44974;BME280;60981;50.720;11.342;2022-10-16T15:24:28;99746.56;;;21.10;84.10
44974;BME280;60981;50.720;11.342;2022-10-16T15:25:32;99743.28;;;21.05;84.39
44974;BME280;60981;50.720;11.342;2022-10-16T15:26:34;99742.31;;;21.08;85.04
44974;BME280;60981;50.720;11.342;2022-10-16T15:27:36;99746.69;;;21.07;84.99
44974;BME280;60981;50.720;11.342;2022-10-16T15:28:44;99740.84;;;21.01;85.58
44974;BME280;60981;50.720;11.342;2022-10-16T15:29:47;99737.41;;;20.98;85.67
44974;BME280;60981;50.720;11.342;2022-10-16T15:30:52;99742.69;;;20.97;85.86
44974;BME280;60981;50.720;11.342;2022-10-16T15:31:55;99749.94;;;20.90;86.31
44974;BME280;60981;50.720;11.342;2022-10-16T15:32:57;99745.88;;;20.82;87.04
44974;BME280;60981;50.720;11.342;2022-10-16T15:34:01;99749.44;;;20.79;87.18
44974;BME280;60981;50.720;11.342;2022-10-16T15:35:07;99749.41;;;20.81;87.72
44974;BME280;60981;50.720;11.342;2022-10-16T15:36:09;99751.09;;;20.82;87.47
44974;BME280;60981;50.720;11.342;2022-10-16T15:37:11;99750.25;;;20.81;87.51
44974;BME280;60981;50.720;11.342;2022-10-16T15:38:19;99748.78;;;20.74;88.33
44974;BME280;60981;50.720;11.342;2022-10-16T15:39:26;99755.94;;;20.69;88.55
44974;BME280;60981;50.720;11.342;2022-10-16T15:40:31;99748.03;;;20.71;88.57
44974;BME280;60981;50.720;11.342;2022-10-16T15:41:33;99749.16;;;20.63;89.21
44974;BME280;60981;50.720;11.342;2022-10-16T15:42:36;99746.44;;;20.66;89.21
44974;BME280;60981;50.720;11.342;2022-10-16T15:43:40;99752.41;;;20.70;88.59
44974;BME280;60981;50.720;11.342;2022-10-16T15:44:42;99757.59;;;20.72;88.68
44974;BME280;60981;50.720;11.342;2022-10-16T15:45:47;99744.63;;;20.68;88.88
44974;BME280;60981;50.720;11.342;2022-10-16T15:46:59;99756.84;;;20.68;89.60
44974;BME280;60981;50.720;11.342;2022-10-16T15:48:02;99751.56;;;20.70;89.20
44974;BME280;60981;50.720;11.342;2022-10-16T15:49:05;99758.63;;;20.67;88.78
44974;BME280;60981;50.720;11.342;2022-10-16T15:50:11;99755.94;;;20.69;89.02
44974;BME280;60981;50.720;11.342;2022-10-16T15:51:17;99755.19;;;20.65;89.24
44974;BME280;60981;50.720;11.342;2022-10-16T15:52:19;99755.22;;;20.64;90.09
44974;BME280;60981;50.720;11.342;2022-10-16T15:53:21;99751.03;;;20.60;91.53
44974;BME280;60981;50.720;11.342;2022-10-16T15:54:23;99753.69;;;20.58;91.24
44974;BME280;60981;50.720;11.342;2022-10-16T15:55:25;99762.50;;;20.56;93.83
44974;BME280;60981;50.720;11.342;2022-10-16T15:56:27;99767.00;;;20.52;93.70
44974;BME280;60981;50.720;11.342;2022-10-16T15:57:30;99764.44;;;20.51;93.40
44974;BME280;60981;50.720;11.342;2022-10-16T15:58:31;99762.00;;;20.45;93.83
44974;BME280;60981;50.720;11.342;2022-10-16T15:59:34;99769.97;;;20.42;93.42
44974;BME280;60981;50.720;11.342;2022-10-16T16:00:36;99769.13;;;20.39;93.68
44974;BME280;60981;50.720;11.342;2022-10-16T16:01:40;99766.13;;;20.25;94.87
44974;BME280;60981;50.720;11.342;2022-10-16T16:02:43;99770.75;;;20.17;95.92
44974;BME280;60981;50.720;11.342;2022-10-16T16:03:51;99768.06;;;20.20;96.23
44974;BME280;60981;50.720;11.342;2022-10-16T16:04:53;99770.75;;;20.17;96.51
44974;BME280;60981;50.720;11.342;2022-10-16T16:05:55;99764.81;;;20.12;97.19
44974;BME280;60981;50.720;11.342;2022-10-16T16:06:57;99759.81;;;20.06;97.67
44974;BME280;60981;50.720;11.342;2022-10-16T16:07:59;99758.97;;;20.05;98.30
44974;BME280;60981;50.720;11.342;2022-10-16T16:09:01;99755.44;;;20.06;98.05
44974;BME280;60981;50.720;11.342;2022-10-16T16:10:10;99766.84;;;20.04;98.02
44974;BME280;60981;50.720;11.342;2022-10-16T16:11:14;99765.22;;;20.00;97.28
44974;BME280;60981;50.720;11.342;2022-10-16T16:12:17;99765.38;;;19.95;98.32
44974;BME280;60981;50.720;11.342;2022-10-16T16:13:19;99759.41;;;19.92;99.61
44974;BME280;60981;50.720;11.342;2022-10-16T16:14:21;99763.88;;;19.88;99.66
44974;BME280;60981;50.720;11.342;2022-10-16T16:15:23;99764.00;;;19.84;100.00
44974;BME280;60981;50.720;11.342;2022-10-16T16:16:26;99770.44;;;19.73;100.00
44974;BME280;60981;50.720;11.342;2022-10-16T16:17:29;99766.50;;;19.60;100.00
44974;BME280;60981;50.720;11.342;2022-10-16T16:18:31;99766.84;;;19.48;100.00
44974;BME280;60981;50.720;11.342;2022-10-16T16:19:33;99767.72;;;19.47;100.00
44974;BME280;60981;50.720;11.342;2022-10-16T16:20:37;99765.28;;;19.42;100.00
44974;BME280;60981;50.720;11.342;2022-10-16T16:21:40;99770.63;;;19.38;100.00
44974;BME280;60981;50.720;11.342;2022-10-16T16:22:43;99773.25;;;19.38;100.00
44974;BME280;60981;50.720;11.342;2022-10-16T16:23:44;99775.91;;;19.36;100.00
44974;BME280;60981;50.720;11.342;2022-10-16T16:24:47;99776.81;;;19.34;100.00
44974;BME280;60981;50.720;11.342;2022-10-16T16:26:09;99780.44;;;19.30;100.00
44974;BME280;60981;50.720;11.342;2022-10-16T16:27:14;99782.34;;;19.25;100.00
44974;BME280;60981;50.720;11.342;2022-10-16T16:28:16;99777.25;;;19.20;100.00
44974;BME280;60981;50.720;11.342;2022-10-16T16:29:18;99789.50;;;19.16;100.00
44974;BME280;60981;50.720;11.342;2022-10-16T16:30:20;99790.47;;;19.14;100.00
44974;BME280;60981;50.720;11.342;2022-10-16T16:31:28;99790.56;;;19.11;100.00
44974;BME280;60981;50.720;11.342;2022-10-16T16:32:31;99790.03;;;18.98;100.00
44974;BME280;60981;50.720;11.342;2022-10-16T16:33:36;99794.50;;;18.95;100.00
44974;BME280;60981;50.720;11.342;2022-10-16T16:34:40;99797.28;;;18.87;100.00
44974;BME280;60981;50.720;11.342;2022-10-16T16:35:43;99801.78;;;18.82;100.00
44974;BME280;60981;50.720;11.342;2022-10-16T16:36:44;99798.28;;;18.83;100.00
44974;BME280;60981;50.720;11.342;2022-10-16T16:37:47;99802.69;;;18.81;100.00
44974;BME280;60981;50.720;11.342;2022-10-16T16:38:49;99802.81;;;18.76;100.00
44974;BME280;60981;50.720;11.342;2022-10-16T16:39:50;99801.97;;;18.76;100.00
44974;BME280;60981;50.720;11.342;2022-10-16T16:40:52;99810.78;;;18.70;100.00
44974;BME280;60981;50.720;11.342;2022-10-16T16:41:57;99805.63;;;18.69;100.00
44974;BME280;60981;50.720;11.342;2022-10-16T16:43:04;99813.53;;;18.66;100.00
44974;BME280;60981;50.720;11.342;2022-10-16T16:44:07;99816.19;;;18.63;100.00
44974;BME280;60981;50.720;11.342;2022-10-16T16:45:13;99819.69;;;18.62;100.00
44974;BME280;60981;50.720;11.342;2022-10-16T16:46:16;99822.47;;;18.54;100.00
44974;BME280;60981;50.720;11.342;2022-10-16T16:47:18;99819.09;;;18.50;100.00
44974;BME280;60981;50.720;11.342;2022-10-16T16:48:21;99817.44;;;18.48;100.00
44974;BME280;60981;50.720;11.342;2022-10-16T16:49:23;99816.66;;;18.44;100.00
44974;BME280;60981;50.720;11.342;2022-10-16T16:50:25;99814.94;;;18.43;100.00
44974;BME280;60981;50.720;11.342;2022-10-16T16:51:28;99810.69;;;18.41;100.00
44974;BME280;60981;50.720;11.342;2022-10-16T16:52:35;99814.19;;;18.38;100.00
44974;BME280;60981;50.720;11.342;2022-10-16T16:53:37;99815.09;;;18.37;100.00
44974;BME280;60981;50.720;11.342;2022-10-16T16:54:40;99817.91;;;18.29;100.00
44974;BME280;60981;50.720;11.342;2022-10-16T16:55:41;99830.88;;;18.31;100.00
44974;BME280;60981;50.720;11.342;2022-10-16T16:56:44;99836.06;;;18.33;100.00
44974;BME280;60981;50.720;11.342;2022-10-16T16:57:47;99827.38;;;18.32;100.00
44974;BME280;60981;50.720;11.342;2022-10-16T16:58:51;99836.88;;;18.35;100.00
44974;BME280;60981;50.720;11.342;2022-10-16T16:59:56;99836.19;;;18.28;100.00
44974;BME280;60981;50.720;11.342;2022-10-16T17:00:59;99837.13;;;18.25;100.00
44974;BME280;60981;50.720;11.342;2022-10-16T17:02:21;99835.44;;;18.23;100.00
44974;BME280;60981;50.720;11.342;2022-10-16T17:03:24;99833.69;;;18.23;100.00
44974;BME280;60981;50.720;11.342;2022-10-16T17:04:25;99830.22;;;18.23;100.00
44974;BME280;60981;50.720;11.342;2022-10-16T17:05:28;99830.97;;;18.28;100.00
44974;BME280;60981;50.720;11.342;2022-10-16T17:06:37;99839.66;;;18.28;100.00
44974;BME280;60981;50.720;11.342;2022-10-16T17:07:39;99849.13;;;18.31;100.00
44974;BME280;60981;50.720;11.342;2022-10-16T17:08:44;99846.53;;;18.31;100.00
44974;BME280;60981;50.720;11.342;2022-10-16T17:09:46;99837.00;;;18.30;100.00
44974;BME280;60981;50.720;11.342;2022-10-16T17:10:48;99842.34;;;18.25;100.00
44974;BME280;60981;50.720;11.342;2022-10-16T17:11:55;99847.59;;;18.24;100.00
44974;BME280;60981;50.720;11.342;2022-10-16T17:12:57;99844.22;;;18.19;100.00
44974;BME280;60981;50.720;11.342;2022-10-16T17:14:02;99839.88;;;18.18;100.00
44974;BME280;60981;50.720;11.342;2022-10-16T17:15:04;99847.63;;;18.21;100.00
44974;BME280;60981;50.720;11.342;2022-10-16T17:16:09;99849.34;;;18.23;100.00
44974;BME280;60981;50.720;11.342;2022-10-16T17:17:10;99854.56;;;18.22;100.00
44974;BME280;60981;50.720;11.342;2022-10-16T17:18:15;99859.75;;;18.23;100.00
44974;BME280;60981;50.720;11.342;2022-10-16T17:19:19;99861.47;;;18.24;100.00
44974;BME280;60981;50.720;11.342;2022-10-16T17:20:21;99858.88;;;18.24;100.00
44974;BME280;60981;50.720;11.342;2022-10-16T17:21:23;99862.31;;;18.25;100.00
44974;BME280;60981;50.720;11.342;2022-10-16T17:22:27;99870.16;;;18.25;100.00
44974;BME280;60981;50.720;11.342;2022-10-16T17:23:30;99869.31;;;18.23;100.00
44974;BME280;60981;50.720;11.342;2022-10-16T17:24:32;99868.44;;;18.24;100.00
44974;BME280;60981;50.720;11.342;2022-10-16T17:25:37;99866.69;;;18.24;100.00
44974;BME280;60981;50.720;11.342;2022-10-16T17:26:40;99869.25;;;18.26;100.00
44974;BME280;60981;50.720;11.342;2022-10-16T17:27:45;99871.00;;;18.25;100.00
44974;BME280;60981;50.720;11.342;2022-10-16T17:28:58;99875.31;;;18.26;100.00
44974;BME280;60981;50.720;11.342;2022-10-16T17:30:01;99872.75;;;18.25;100.00
44974;BME280;60981;50.720;11.342;2022-10-16T17:31:08;99877.16;;;18.23;100.00
44974;BME280;60981;50.720;11.342;2022-10-16T17:32:11;99879.75;;;18.21;100.00
44974;BME280;60981;50.720;11.342;2022-10-16T17:33:13;99879.75;;;18.23;100.00
44974;BME280;60981;50.720;11.342;2022-10-16T17:34:15;99876.38;;;18.18;100.00
44974;BME280;60981;50.720;11.342;2022-10-16T17:35:17;99879.78;;;18.20;100.00
44974;BME280;60981;50.720;11.342;2022-10-16T17:36:20;99874.53;;;18.21;100.00
44974;BME280;60981;50.720;11.342;2022-10-16T17:37:23;99879.78;;;18.20;100.00
44974;BME280;60981;50.720;11.342;2022-10-16T17:38:26;99873.09;;;18.10;100.00
44974;BME280;60981;50.720;11.342;2022-10-16T17:39:29;99880.16;;;18.05;100.00
44974;BME280;60981;50.720;11.342;2022-10-16T17:40:30;99869.94;;;17.95;100.00
44974;BME280;60981;50.720;11.342;2022-10-16T17:41:34;99866.53;;;17.93;100.00
44974;BME280;60981;50.720;11.342;2022-10-16T17:42:35;99876.94;;;17.93;100.00
44974;BME280;60981;50.720;11.342;2022-10-16T17:43:37;99871.84;;;17.87;100.00
44974;BME280;60981;50.720;11.342;2022-10-16T17:44:39;99874.41;;;17.89;100.00
44974;BME280;60981;50.720;11.342;2022-10-16T17:45:41;99877.88;;;17.89;100.00
44974;BME280;60981;50.720;11.342;2022-10-16T17:46:49;99876.19;;;17.87;100.00
44974;BME280;60981;50.720;11.342;2022-10-16T17:47:51;99878.00;;;17.85;100.00
44974;BME280;60981;50.720;11.342;2022-10-16T17:48:56;99875.41;;;17.83;100.00
44974;BME280;60981;50.720;11.342;2022-10-16T17:49:59;99879.69;;;17.86;100.00
44974;BME280;60981;50.720;11.342;2022-10-16T17:51:02;99883.19;;;17.85;100.00
44974;BME280;60981;50.720;11.342;2022-10-16T17:52:04;99886.88;;;17.76;100.00
44974;BME280;60981;50.720;11.342;2022-10-16T17:53:09;99891.13;;;17.80;100.00
44974;BME280;60981;50.720;11.342;2022-10-16T17:54:11;99878.97;;;17.81;100.00
44974;BME280;60981;50.720;11.342;2022-10-16T17:55:14;99884.09;;;17.84;100.00
44974;BME280;60981;50.720;11.342;2022-10-16T17:56:18;99886.66;;;17.85;100.00
44974;BME280;60981;50.720;11.342;2022-10-16T17:57:22;99882.34;;;17.84;100.00
44974;BME280;60981;50.720;11.342;2022-10-16T17:58:26;99887.47;;;17.87;100.00
44974;BME280;60981;50.720;11.342;2022-10-16T17:59:29;99886.63;;;17.87;100.00
44974;BME280;60981;50.720;11.342;2022-10-16T18:00:32;99884.03;;;17.87;100.00
44974;BME280;60981;50.720;11.342;2022-10-16T18:01:37;99894.41;;;17.88;100.00
44974;BME280;60981;50.720;11.342;2022-10-16T18:02:51;99892.69;;;17.87;100.00
44974;BME280;60981;50.720;11.342;2022-10-16T18:03:54;99890.97;;;17.86;100.00
44974;BME280;60981;50.720;11.342;2022-10-16T18:04:56;99893.53;;;17.88;100.00
44974;BME280;60981;50.720;11.342;2022-10-16T18:06:00;99897.03;;;17.87;100.00
44974;BME280;60981;50.720;11.342;2022-10-16T18:07:02;99903.94;;;17.89;100.00
44974;BME280;60981;50.720;11.342;2022-10-16T18:08:03;99898.81;;;17.85;100.00
44974;BME280;60981;50.720;11.342;2022-10-16T18:09:05;99907.53;;;17.84;100.00
44974;BME280;60981;50.720;11.342;2022-10-16T18:10:07;99906.72;;;17.82;100.00
44974;BME280;60981;50.720;11.342;2022-10-16T18:11:13;99897.28;;;17.76;100.00